sensor_id;sensor_type;location;lat;lon;timestamp;pressure;altitude;pressure_sealevel;temperature;humidity
66524;BME280;53350;52.210;5.160;2023-10-13T00:00:25;101136.19;;;18.56;95.09
66524;BME280;53350;52.210;5.160;2023-10-13T00:02:55;101136.13;;;18.58;94.86
66524;BME280;53350;52.210;5.160;2023-10-13T00:05:26;101130.00;;;18.59;94.88
66524;BME280;53350;52.210;5.160;2023-10-13T00:07:52;101131.66;;;18.62;94.79
66524;BME280;53350;52.210;5.160;2023-10-13T00:10:19;101127.28;;;18.62;94.89
66524;BME280;53350;52.210;5.160;2023-10-13T00:12:46;101117.69;;;18.63;94.46
66524;BME280;53350;52.210;5.160;2023-10-13T00:15:16;101113.25;;;18.65;94.70
66524;BME280;53350;52.210;5.160;2023-10-13T00:17:46;101118.53;;;18.63;94.43
66524;BME280;53350;52.210;5.160;2023-10-13T00:20:12;101116.84;;;18.62;94.67
66524;BME280;53350;52.210;5.160;2023-10-13T00:22:59;101111.53;;;18.64;94.85
66524;BME280;53350;52.210;5.160;2023-10-13T00:25:27;101110.72;;;18.63;94.32
66524;BME280;53350;52.210;5.160;2023-10-13T00:27:53;101104.72;;;18.61;94.62
66524;BME280;53350;52.210;5.160;2023-10-13T00:30:22;101109.97;;;18.59;94.85
66524;BME280;53350;52.210;5.160;2023-10-13T00:32:58;101096.34;;;18.53;94.78
66524;BME280;53350;52.210;5.160;2023-10-13T00:35:26;101101.31;;;18.59;94.75
66524;BME280;53350;52.210;5.160;2023-10-13T00:37:55;101099.53;;;18.59;94.88
66524;BME280;53350;52.210;5.160;2023-10-13T00:40:22;101097.88;;;18.58;94.61
66524;BME280;53350;52.210;5.160;2023-10-13T00:43:08;101101.31;;;18.59;94.50
66524;BME280;53350;52.210;5.160;2023-10-13T00:46:00;101091.72;;;18.59;94.52
66524;BME280;53350;52.210;5.160;2023-10-13T00:48:33;101084.88;;;18.57;94.73
66524;BME280;53350;52.210;5.160;2023-10-13T00:51:01;101088.25;;;18.59;94.63
66524;BME280;53350;52.210;5.160;2023-10-13T00:53:29;101089.97;;;18.60;94.61
66524;BME280;53350;52.210;5.160;2023-10-13T00:55:56;101082.91;;;18.62;94.34
66524;BME280;53350;52.210;5.160;2023-10-13T00:58:22;101079.59;;;18.58;94.43
66524;BME280;53350;52.210;5.160;2023-10-13T01:00:50;101077.75;;;18.60;94.63
66524;BME280;53350;52.210;5.160;2023-10-13T01:03:23;101071.72;;;18.60;94.78
66524;BME280;53350;52.210;5.160;2023-10-13T01:05:53;101067.41;;;18.59;94.85
66524;BME280;53350;52.210;5.160;2023-10-13T01:08:31;101057.94;;;18.56;94.99
66524;BME280;53350;52.210;5.160;2023-10-13T01:10:59;101055.25;;;18.58;95.03
66524;BME280;53350;52.210;5.160;2023-10-13T01:13:25;101052.84;;;18.53;94.62
66524;BME280;53350;52.210;5.160;2023-10-13T01:15:52;101052.78;;;18.55;95.14
66524;BME280;53350;52.210;5.160;2023-10-13T01:18:18;101052.84;;;18.53;94.99
66524;BME280;53350;52.210;5.160;2023-10-13T01:20:46;101040.66;;;18.54;95.26
66524;BME280;53350;52.210;5.160;2023-10-13T01:23:18;101037.19;;;18.53;95.13
66524;BME280;53350;52.210;5.160;2023-10-13T01:25:44;101028.66;;;18.50;95.63
66524;BME280;53350;52.210;5.160;2023-10-13T01:28:11;101033.69;;;18.54;95.45
66524;BME280;53350;52.210;5.160;2023-10-13T01:30:41;101028.25;;;18.59;95.05
66524;BME280;53350;52.210;5.160;2023-10-13T01:33:07;101027.56;;;18.55;94.94
66524;BME280;53350;52.210;5.160;2023-10-13T01:35:34;101016.38;;;18.52;95.28
66524;BME280;53350;52.210;5.160;2023-10-13T01:38:02;101023.31;;;18.53;95.46
66524;BME280;53350;52.210;5.160;2023-10-13T01:40:29;101011.09;;;18.53;95.50
66524;BME280;53350;52.210;5.160;2023-10-13T01:42:58;101009.38;;;18.54;95.59
66524;BME280;53350;52.210;5.160;2023-10-13T01:45:24;101001.47;;;18.55;95.66
66524;BME280;53350;52.210;5.160;2023-10-13T01:47:54;101006.47;;;18.60;95.23
66524;BME280;53350;52.210;5.160;2023-10-13T01:50:19;101003.06;;;18.58;95.17
66524;BME280;53350;52.210;5.160;2023-10-13T01:52:53;101004.00;;;18.57;95.15
66524;BME280;53350;52.210;5.160;2023-10-13T01:55:25;101000.47;;;18.58;95.33
66524;BME280;53350;52.210;5.160;2023-10-13T01:57:54;100997.78;;;18.59;95.43
66524;BME280;53350;52.210;5.160;2023-10-13T02:00:20;101002.91;;;18.63;95.21
66524;BME280;53350;52.210;5.160;2023-10-13T02:02:46;100998.53;;;18.63;94.81
66524;BME280;53350;52.210;5.160;2023-10-13T02:05:15;100992.41;;;18.64;94.55
66524;BME280;53350;52.210;5.160;2023-10-13T02:07:42;100986.44;;;18.60;94.68
66524;BME280;53350;52.210;5.160;2023-10-13T02:10:11;100993.44;;;18.60;94.64
66524;BME280;53350;52.210;5.160;2023-10-13T02:12:38;100987.50;;;18.56;94.65
66524;BME280;53350;52.210;5.160;2023-10-13T02:15:09;100990.91;;;18.58;94.26
66524;BME280;53350;52.210;5.160;2023-10-13T02:17:38;100979.88;;;18.52;94.90
66524;BME280;53350;52.210;5.160;2023-10-13T02:20:07;100977.41;;;18.49;94.99
66524;BME280;53350;52.210;5.160;2023-10-13T02:22:35;100981.78;;;18.48;95.08
66524;BME280;53350;52.210;5.160;2023-10-13T02:25:03;100978.31;;;18.48;94.47
66524;BME280;53350;52.210;5.160;2023-10-13T02:27:32;100975.69;;;18.48;95.27
66524;BME280;53350;52.210;5.160;2023-10-13T02:30:06;100966.19;;;18.47;95.14
66524;BME280;53350;52.210;5.160;2023-10-13T02:32:40;100961.81;;;18.47;95.22
66524;BME280;53350;52.210;5.160;2023-10-13T02:35:09;100958.31;;;18.48;95.10
66524;BME280;53350;52.210;5.160;2023-10-13T02:37:41;100949.47;;;18.51;95.22
66524;BME280;53350;52.210;5.160;2023-10-13T02:40:10;100925.56;;;18.41;95.04
66524;BME280;53350;52.210;5.160;2023-10-13T02:42:36;100941.56;;;18.52;95.02
66524;BME280;53350;52.210;5.160;2023-10-13T02:45:02;100932.00;;;18.53;94.98
66524;BME280;53350;52.210;5.160;2023-10-13T02:47:30;100928.53;;;18.52;94.89
66524;BME280;53350;52.210;5.160;2023-10-13T02:49:58;100927.63;;;18.53;94.75
66524;BME280;53350;52.210;5.160;2023-10-13T02:52:26;100925.88;;;18.54;94.97
66524;BME280;53350;52.210;5.160;2023-10-13T02:54:52;100926.88;;;18.51;94.80
66524;BME280;53350;52.210;5.160;2023-10-13T02:57:18;100912.13;;;18.50;94.61
66524;BME280;53350;52.210;5.160;2023-10-13T02:59:44;100905.13;;;18.51;94.94
66524;BME280;53350;52.210;5.160;2023-10-13T03:02:12;100899.84;;;18.52;95.10
66524;BME280;53350;52.210;5.160;2023-10-13T03:04:44;100883.34;;;18.52;94.41
66524;BME280;53350;52.210;5.160;2023-10-13T03:07:11;100881.78;;;18.48;94.45
66524;BME280;53350;52.210;5.160;2023-10-13T03:09:41;100876.56;;;18.48;94.38
66524;BME280;53350;52.210;5.160;2023-10-13T03:12:15;100867.16;;;18.45;94.63
66524;BME280;53350;52.210;5.160;2023-10-13T03:14:41;100866.34;;;18.43;95.12
66524;BME280;53350;52.210;5.160;2023-10-13T03:17:07;100861.97;;;18.43;94.67
66524;BME280;53350;52.210;5.160;2023-10-13T03:19:42;100856.75;;;18.43;94.99
66524;BME280;53350;52.210;5.160;2023-10-13T03:22:12;100851.34;;;18.48;94.97
66524;BME280;53350;52.210;5.160;2023-10-13T03:24:42;100846.16;;;18.48;94.42
66524;BME280;53350;52.210;5.160;2023-10-13T03:27:11;100832.66;;;18.38;94.77
66524;BME280;53350;52.210;5.160;2023-10-13T03:29:41;100832.81;;;18.35;94.75
66524;BME280;53350;52.210;5.160;2023-10-13T03:32:09;100841.53;;;18.34;95.13
66524;BME280;53350;52.210;5.160;2023-10-13T03:34:37;100825.88;;;18.34;95.29
66524;BME280;53350;52.210;5.160;2023-10-13T03:37:06;100819.63;;;18.38;95.44
66524;BME280;53350;52.210;5.160;2023-10-13T03:39:44;100815.38;;;18.36;95.28
66524;BME280;53350;52.210;5.160;2023-10-13T03:42:10;100807.50;;;18.37;94.98
66524;BME280;53350;52.210;5.160;2023-10-13T03:44:44;100799.88;;;18.33;94.98
66524;BME280;53350;52.210;5.160;2023-10-13T03:47:11;100791.09;;;18.35;95.19
66524;BME280;53350;52.210;5.160;2023-10-13T03:49:44;100775.00;;;18.25;95.30
66524;BME280;53350;52.210;5.160;2023-10-13T03:52:16;100769.84;;;18.24;95.31
66524;BME280;53350;52.210;5.160;2023-10-13T03:54:48;100757.66;;;18.24;95.34
66524;BME280;53350;52.210;5.160;2023-10-13T03:57:16;100748.25;;;18.22;95.07
66524;BME280;53350;52.210;5.160;2023-10-13T03:59:43;100746.41;;;18.24;95.17
66524;BME280;53350;52.210;5.160;2023-10-13T04:02:13;100731.81;;;18.20;95.67
66524;BME280;53350;52.210;5.160;2023-10-13T04:04:43;100727.50;;;18.19;95.65
66524;BME280;53350;52.210;5.160;2023-10-13T04:07:14;100726.72;;;18.17;96.58
66524;BME280;53350;52.210;5.160;2023-10-13T04:10:02;100722.50;;;18.14;96.12
66524;BME280;53350;52.210;5.160;2023-10-13T04:12:46;100720.03;;;18.11;96.02
66524;BME280;53350;52.210;5.160;2023-10-13T04:15:33;100722.44;;;18.16;96.41
66524;BME280;53350;52.210;5.160;2023-10-13T04:18:28;100712.88;;;18.16;96.02
66524;BME280;53350;52.210;5.160;2023-10-13T04:21:12;100700.66;;;18.17;96.05
66524;BME280;53350;52.210;5.160;2023-10-13T04:24:01;100695.03;;;18.07;96.07
66524;BME280;53350;52.210;5.160;2023-10-13T04:26:48;100695.25;;;18.02;96.25
66524;BME280;53350;52.210;5.160;2023-10-13T04:29:43;100702.38;;;17.99;96.48
66524;BME280;53350;52.210;5.160;2023-10-13T04:32:17;100676.34;;;17.97;96.78
66524;BME280;53350;52.210;5.160;2023-10-13T04:34:54;100668.75;;;17.93;96.87
66524;BME280;53350;52.210;5.160;2023-10-13T04:37:23;100669.69;;;17.92;97.12
66524;BME280;53350;52.210;5.160;2023-10-13T04:39:54;100672.38;;;17.88;97.45
66524;BME280;53350;52.210;5.160;2023-10-13T04:42:25;100667.97;;;17.90;96.71
66524;BME280;53350;52.210;5.160;2023-10-13T04:45:10;100661.28;;;18.04;96.88
66524;BME280;53350;52.210;5.160;2023-10-13T04:48:03;100662.25;;;18.01;96.95
66524;BME280;53350;52.210;5.160;2023-10-13T04:50:39;100671.56;;;18.07;96.14
66524;BME280;53350;52.210;5.160;2023-10-13T04:53:10;100650.56;;;18.10;96.07
66524;BME280;53350;52.210;5.160;2023-10-13T04:55:53;100644.53;;;18.10;96.48
66524;BME280;53350;52.210;5.160;2023-10-13T04:58:34;100640.22;;;18.08;97.34
66524;BME280;53350;52.210;5.160;2023-10-13T05:01:26;100634.09;;;18.10;96.98
66524;BME280;53350;52.210;5.160;2023-10-13T05:04:22;100641.00;;;18.11;97.80
66524;BME280;53350;52.210;5.160;2023-10-13T05:07:02;100632.31;;;18.10;97.94
66524;BME280;53350;52.210;5.160;2023-10-13T05:09:46;100622.84;;;18.09;99.46
66524;BME280;53350;52.210;5.160;2023-10-13T05:12:30;100619.13;;;18.13;99.75
66524;BME280;53350;52.210;5.160;2023-10-13T05:15:16;100630.97;;;18.20;98.32
66524;BME280;53350;52.210;5.160;2023-10-13T05:18:00;100629.63;;;18.31;97.97
66524;BME280;53350;52.210;5.160;2023-10-13T05:20:43;100634.63;;;18.35;97.96
66524;BME280;53350;52.210;5.160;2023-10-13T05:23:27;100634.47;;;18.38;98.24
66524;BME280;53350;52.210;5.160;2023-10-13T05:26:11;100637.00;;;18.40;98.67
66524;BME280;53350;52.210;5.160;2023-10-13T05:28:55;100621.34;;;18.40;99.14
66524;BME280;53350;52.210;5.160;2023-10-13T05:31:40;100627.19;;;18.45;98.74
66524;BME280;53350;52.210;5.160;2023-10-13T05:34:24;100618.28;;;18.49;98.66
66524;BME280;53350;52.210;5.160;2023-10-13T05:37:08;100607.16;;;18.46;99.41
66524;BME280;53350;52.210;5.160;2023-10-13T05:39:52;100611.47;;;18.47;99.02
66524;BME280;53350;52.210;5.160;2023-10-13T05:42:36;100616.38;;;18.53;98.48
66524;BME280;53350;52.210;5.160;2023-10-13T05:45:20;100605.88;;;18.54;98.10
66524;BME280;53350;52.210;5.160;2023-10-13T05:48:04;100600.50;;;18.57;98.03
66524;BME280;53350;52.210;5.160;2023-10-13T05:50:37;100590.13;;;18.56;97.24
66524;BME280;53350;52.210;5.160;2023-10-13T05:53:36;100590.91;;;18.58;96.79
66524;BME280;53350;52.210;5.160;2023-10-13T05:56:19;100588.28;;;18.58;96.34
66524;BME280;53350;52.210;5.160;2023-10-13T05:59:03;100576.28;;;18.55;96.40
66524;BME280;53350;52.210;5.160;2023-10-13T06:01:47;100582.47;;;18.53;95.99
66524;BME280;53350;52.210;5.160;2023-10-13T06:04:33;100577.34;;;18.51;96.11
66524;BME280;53350;52.210;5.160;2023-10-13T06:07:17;100575.47;;;18.53;95.51
66524;BME280;53350;52.210;5.160;2023-10-13T06:10:00;100572.13;;;18.51;95.54
66524;BME280;53350;52.210;5.160;2023-10-13T06:12:44;100578.16;;;18.52;94.88
66524;BME280;53350;52.210;5.160;2023-10-13T06:15:27;100577.19;;;18.54;94.03
66524;BME280;53350;52.210;5.160;2023-10-13T06:18:12;100570.34;;;18.52;93.98
66524;BME280;53350;52.210;5.160;2023-10-13T06:20:57;100564.38;;;18.50;94.08
66524;BME280;53350;52.210;5.160;2023-10-13T06:23:43;100565.13;;;18.52;93.70
66524;BME280;53350;52.210;5.160;2023-10-13T06:26:27;100562.50;;;18.52;93.67
66524;BME280;53350;52.210;5.160;2023-10-13T06:29:11;100548.56;;;18.53;93.91
66524;BME280;53350;52.210;5.160;2023-10-13T06:31:45;100547.69;;;18.52;93.64
66524;BME280;53350;52.210;5.160;2023-10-13T06:34:11;100545.09;;;18.52;93.90
66524;BME280;53350;52.210;5.160;2023-10-13T06:36:42;100544.09;;;18.55;93.49
66524;BME280;53350;52.210;5.160;2023-10-13T06:39:11;100527.63;;;18.54;93.87
66524;BME280;53350;52.210;5.160;2023-10-13T06:42:00;100543.28;;;18.54;93.95
66524;BME280;53350;52.210;5.160;2023-10-13T06:44:28;100534.59;;;18.54;93.98
66524;BME280;53350;52.210;5.160;2023-10-13T06:46:57;100533.75;;;18.53;94.21
66524;BME280;53350;52.210;5.160;2023-10-13T06:49:24;100522.47;;;18.53;94.26
66524;BME280;53350;52.210;5.160;2023-10-13T06:51:51;100516.34;;;18.54;94.24
66524;BME280;53350;52.210;5.160;2023-10-13T06:54:19;100511.97;;;18.54;94.75
66524;BME280;53350;52.210;5.160;2023-10-13T06:56:45;100519.72;;;18.56;94.49
66524;BME280;53350;52.210;5.160;2023-10-13T06:59:12;100512.81;;;18.55;95.10
66524;BME280;53350;52.210;5.160;2023-10-13T07:01:40;100512.06;;;18.53;95.41
66524;BME280;53350;52.210;5.160;2023-10-13T07:04:08;100496.41;;;18.53;95.82
66524;BME280;53350;52.210;5.160;2023-10-13T07:06:40;100491.19;;;18.53;95.90
66524;BME280;53350;52.210;5.160;2023-10-13T07:09:14;100491.78;;;18.58;96.53
66524;BME280;53350;52.210;5.160;2023-10-13T07:11:59;100491.09;;;18.54;97.12
66524;BME280;53350;52.210;5.160;2023-10-13T07:14:31;100478.81;;;18.56;97.84
66524;BME280;53350;52.210;5.160;2023-10-13T07:17:01;100459.25;;;18.48;98.97
66524;BME280;53350;52.210;5.160;2023-10-13T07:19:30;100474.47;;;18.57;99.42
66524;BME280;53350;52.210;5.160;2023-10-13T07:21:56;100470.69;;;18.63;99.56
66524;BME280;53350;52.210;5.160;2023-10-13T07:24:26;100477.41;;;18.67;99.95
66524;BME280;53350;52.210;5.160;2023-10-13T07:26:56;100455.28;;;18.74;99.66
66524;BME280;53350;52.210;5.160;2023-10-13T07:29:28;100465.50;;;18.79;99.84
66524;BME280;53350;52.210;5.160;2023-10-13T07:31:55;100475.56;;;18.86;98.88
66524;BME280;53350;52.210;5.160;2023-10-13T07:34:21;100464.13;;;18.89;99.41
66524;BME280;53350;52.210;5.160;2023-10-13T07:36:52;100468.31;;;18.91;99.73
66524;BME280;53350;52.210;5.160;2023-10-13T07:39:24;100474.16;;;18.97;99.46
66524;BME280;53350;52.210;5.160;2023-10-13T07:41:52;100454.00;;;18.99;99.23
66524;BME280;53350;52.210;5.160;2023-10-13T07:44:28;100458.25;;;19.01;99.34
66524;BME280;53350;52.210;5.160;2023-10-13T07:46:57;100464.97;;;19.05;99.36
66524;BME280;53350;52.210;5.160;2023-10-13T07:49:29;100461.28;;;19.09;98.57
66524;BME280;53350;52.210;5.160;2023-10-13T07:51:58;100450.59;;;19.14;98.41
66524;BME280;53350;52.210;5.160;2023-10-13T07:54:26;100451.84;;;19.07;99.12
66524;BME280;53350;52.210;5.160;2023-10-13T07:56:54;100453.19;;;19.14;98.33
66524;BME280;53350;52.210;5.160;2023-10-13T07:59:21;100458.34;;;19.16;98.33
66524;BME280;53350;52.210;5.160;2023-10-13T08:01:48;100445.63;;;19.09;98.46
66524;BME280;53350;52.210;5.160;2023-10-13T08:04:36;100437.53;;;19.14;97.97
66524;BME280;53350;52.210;5.160;2023-10-13T08:07:02;100444.78;;;19.25;97.65
66524;BME280;53350;52.210;5.160;2023-10-13T08:09:37;100430.22;;;19.21;97.46
66524;BME280;53350;52.210;5.160;2023-10-13T08:12:07;100445.44;;;19.28;97.28
66524;BME280;53350;52.210;5.160;2023-10-13T08:14:37;100433.81;;;19.34;97.11
66524;BME280;53350;52.210;5.160;2023-10-13T08:17:04;100421.69;;;19.33;96.31
66524;BME280;53350;52.210;5.160;2023-10-13T08:19:32;100418.56;;;19.42;95.99
66524;BME280;53350;52.210;5.160;2023-10-13T08:22:05;100413.19;;;19.45;95.77
66524;BME280;53350;52.210;5.160;2023-10-13T08:24:48;100416.72;;;19.44;95.26
66524;BME280;53350;52.210;5.160;2023-10-13T08:27:39;100428.91;;;19.60;95.07
66524;BME280;53350;52.210;5.160;2023-10-13T08:30:15;100414.34;;;19.56;94.26
66524;BME280;53350;52.210;5.160;2023-10-13T08:32:53;100414.47;;;19.69;94.24
66524;BME280;53350;52.210;5.160;2023-10-13T08:35:24;100413.47;;;19.71;93.85
66524;BME280;53350;52.210;5.160;2023-10-13T08:38:03;100414.94;;;19.75;93.07
66524;BME280;53350;52.210;5.160;2023-10-13T08:40:38;100425.50;;;19.74;92.83
66524;BME280;53350;52.210;5.160;2023-10-13T08:43:32;100410.50;;;19.77;92.71
66524;BME280;53350;52.210;5.160;2023-10-13T08:46:08;100412.59;;;19.87;91.65
66524;BME280;53350;52.210;5.160;2023-10-13T08:48:34;100409.16;;;19.86;91.02
66524;BME280;53350;52.210;5.160;2023-10-13T08:51:02;100409.72;;;19.75;90.16
66524;BME280;53350;52.210;5.160;2023-10-13T08:53:35;100391.03;;;19.83;89.86
66524;BME280;53350;52.210;5.160;2023-10-13T08:56:10;100391.78;;;19.85;89.51
66524;BME280;53350;52.210;5.160;2023-10-13T08:58:41;100395.59;;;19.79;89.44
66524;BME280;53350;52.210;5.160;2023-10-13T09:01:31;100395.06;;;19.89;88.87
66524;BME280;53350;52.210;5.160;2023-10-13T09:04:02;100404.41;;;19.93;88.43
66524;BME280;53350;52.210;5.160;2023-10-13T09:06:43;100399.94;;;19.95;88.79
66524;BME280;53350;52.210;5.160;2023-10-13T09:09:12;100392.81;;;19.97;88.55
66524;BME280;53350;52.210;5.160;2023-10-13T09:11:51;100385.56;;;20.02;87.85
66524;BME280;53350;52.210;5.160;2023-10-13T09:14:31;100378.56;;;20.03;88.27
66524;BME280;53350;52.210;5.160;2023-10-13T09:17:05;100378.75;;;20.00;87.70
66524;BME280;53350;52.210;5.160;2023-10-13T09:19:47;100378.56;;;20.03;87.41
66524;BME280;53350;52.210;5.160;2023-10-13T09:22:20;100386.22;;;20.06;86.90
66524;BME280;53350;52.210;5.160;2023-10-13T09:24:51;100369.88;;;20.02;87.11
66524;BME280;53350;52.210;5.160;2023-10-13T09:27:17;100372.31;;;20.05;86.29
66524;BME280;53350;52.210;5.160;2023-10-13T09:29:55;100369.50;;;20.08;86.51
66524;BME280;53350;52.210;5.160;2023-10-13T09:32:20;100361.38;;;19.98;86.60
66524;BME280;53350;52.210;5.160;2023-10-13T09:34:46;100360.94;;;20.06;86.51
66524;BME280;53350;52.210;5.160;2023-10-13T09:37:13;100365.38;;;20.04;86.81
66524;BME280;53350;52.210;5.160;2023-10-13T09:39:45;100359.97;;;20.07;86.60
66524;BME280;53350;52.210;5.160;2023-10-13T09:42:13;100351.69;;;20.15;86.27
66524;BME280;53350;52.210;5.160;2023-10-13T09:44:43;100341.78;;;20.20;85.27
66524;BME280;53350;52.210;5.160;2023-10-13T09:47:16;100333.19;;;20.18;85.65
66524;BME280;53350;52.210;5.160;2023-10-13T09:49:50;100336.72;;;20.17;85.70
66524;BME280;53350;52.210;5.160;2023-10-13T09:52:22;100328.69;;;20.20;85.86
66524;BME280;53350;52.210;5.160;2023-10-13T09:54:53;100324.78;;;20.27;85.62
66524;BME280;53350;52.210;5.160;2023-10-13T09:57:26;100322.06;;;20.29;84.90
66524;BME280;53350;52.210;5.160;2023-10-13T10:00:00;100312.16;;;20.34;84.32
66524;BME280;53350;52.210;5.160;2023-10-13T10:02:32;100307.13;;;20.31;84.46
66524;BME280;53350;52.210;5.160;2023-10-13T10:05:00;100303.31;;;20.37;84.07
66524;BME280;53350;52.210;5.160;2023-10-13T10:07:37;100314.31;;;20.42;84.46
66524;BME280;53350;52.210;5.160;2023-10-13T10:10:05;100296.84;;;20.42;83.52
66524;BME280;53350;52.210;5.160;2023-10-13T10:12:32;100310.47;;;20.47;83.92
66524;BME280;53350;52.210;5.160;2023-10-13T10:15:07;100306.72;;;20.52;83.45
66524;BME280;53350;52.210;5.160;2023-10-13T10:17:39;100312.06;;;20.50;83.33
66524;BME280;53350;52.210;5.160;2023-10-13T10:20:07;100307.66;;;20.50;83.20
66524;BME280;53350;52.210;5.160;2023-10-13T10:22:54;100288.47;;;20.64;82.69
66524;BME280;53350;52.210;5.160;2023-10-13T10:25:28;100292.53;;;20.70;81.71
66524;BME280;53350;52.210;5.160;2023-10-13T10:27:55;100275.69;;;20.74;81.90
66524;BME280;53350;52.210;5.160;2023-10-13T10:30:23;100285.75;;;20.80;81.87
66524;BME280;53350;52.210;5.160;2023-10-13T10:32:54;100289.25;;;20.94;80.63
66524;BME280;53350;52.210;5.160;2023-10-13T10:35:24;100263.19;;;20.92;79.96
66524;BME280;53350;52.210;5.160;2023-10-13T10:37:51;100260.28;;;21.10;80.69
66524;BME280;53350;52.210;5.160;2023-10-13T10:40:18;100262.22;;;21.21;79.71
66524;BME280;53350;52.210;5.160;2023-10-13T10:43:12;100260.97;;;21.26;80.09
66524;BME280;53350;52.210;5.160;2023-10-13T10:45:45;100260.88;;;21.28;79.54
66524;BME280;53350;52.210;5.160;2023-10-13T10:48:11;100258.78;;;21.46;78.67
66524;BME280;53350;52.210;5.160;2023-10-13T10:50:43;100260.47;;;21.47;77.89
66524;BME280;53350;52.210;5.160;2023-10-13T10:53:10;100251.50;;;21.51;77.90
66524;BME280;53350;52.210;5.160;2023-10-13T10:55:36;100249.38;;;21.56;76.44
66524;BME280;53350;52.210;5.160;2023-10-13T10:58:03;100240.06;;;21.52;76.62
66524;BME280;53350;52.210;5.160;2023-10-13T11:00:32;100237.72;;;21.47;76.26
66524;BME280;53350;52.210;5.160;2023-10-13T11:03:11;100234.06;;;21.50;75.57
66524;BME280;53350;52.210;5.160;2023-10-13T11:05:46;100230.06;;;21.44;76.44
66524;BME280;53350;52.210;5.160;2023-10-13T11:08:21;100239.63;;;21.45;75.81
66524;BME280;53350;52.210;5.160;2023-10-13T11:10:56;100227.66;;;21.41;75.03
66524;BME280;53350;52.210;5.160;2023-10-13T11:13:22;100219.38;;;21.47;75.12
66524;BME280;53350;52.210;5.160;2023-10-13T11:15:50;100219.16;;;21.50;75.04
66524;BME280;53350;52.210;5.160;2023-10-13T11:18:16;100204.22;;;21.52;74.58
66524;BME280;53350;52.210;5.160;2023-10-13T11:20:46;100207.44;;;21.56;74.38
66524;BME280;53350;52.210;5.160;2023-10-13T11:23:15;100212.81;;;21.54;74.37
66524;BME280;53350;52.210;5.160;2023-10-13T11:25:41;100198.75;;;21.56;74.72
66524;BME280;53350;52.210;5.160;2023-10-13T11:28:10;100202.94;;;21.45;74.38
66524;BME280;53350;52.210;5.160;2023-10-13T11:30:42;100190.03;;;21.55;74.35
66524;BME280;53350;52.210;5.160;2023-10-13T11:33:12;100189.44;;;21.64;73.35
66524;BME280;53350;52.210;5.160;2023-10-13T11:35:43;100186.81;;;21.51;73.49
66524;BME280;53350;52.210;5.160;2023-10-13T11:38:22;100193.31;;;21.59;73.36
66524;BME280;53350;52.210;5.160;2023-10-13T11:40:51;100175.78;;;21.72;72.45
66524;BME280;53350;52.210;5.160;2023-10-13T11:43:41;100171.56;;;21.82;71.54
66524;BME280;53350;52.210;5.160;2023-10-13T11:46:28;100192.75;;;21.92;70.21
66524;BME280;53350;52.210;5.160;2023-10-13T11:49:13;100192.25;;;21.87;70.76
66524;BME280;53350;52.210;5.160;2023-10-13T11:51:56;100194.44;;;21.93;69.90
66524;BME280;53350;52.210;5.160;2023-10-13T11:54:33;100208.38;;;21.94;70.60
66524;BME280;53350;52.210;5.160;2023-10-13T11:57:01;100191.81;;;21.93;69.74
66524;BME280;53350;52.210;5.160;2023-10-13T11:59:27;100185.63;;;21.94;69.13
66524;BME280;53350;52.210;5.160;2023-10-13T12:01:54;100191.47;;;21.98;69.51
66524;BME280;53350;52.210;5.160;2023-10-13T12:04:39;100190.53;;;21.99;68.81
66524;BME280;53350;52.210;5.160;2023-10-13T12:07:14;100188.63;;;22.01;68.47
66524;BME280;53350;52.210;5.160;2023-10-13T12:09:42;100183.38;;;22.01;68.47
66524;BME280;53350;52.210;5.160;2023-10-13T12:12:18;100185.91;;;22.02;67.97
66524;BME280;53350;52.210;5.160;2023-10-13T12:14:44;100187.91;;;21.99;67.61
66524;BME280;53350;52.210;5.160;2023-10-13T12:17:20;100191.78;;;22.06;67.32
66524;BME280;53350;52.210;5.160;2023-10-13T12:19:52;100190.69;;;22.09;67.17
66524;BME280;53350;52.210;5.160;2023-10-13T12:22:19;100177.91;;;22.04;67.12
66524;BME280;53350;52.210;5.160;2023-10-13T12:24:53;100165.03;;;22.01;67.54
66524;BME280;53350;52.210;5.160;2023-10-13T12:27:19;100165.78;;;22.03;67.47
66524;BME280;53350;52.210;5.160;2023-10-13T12:29:48;100171.84;;;22.03;67.36
66524;BME280;53350;52.210;5.160;2023-10-13T12:32:16;100172.25;;;22.10;66.66
66524;BME280;53350;52.210;5.160;2023-10-13T12:34:47;100174.75;;;22.12;66.84
66524;BME280;53350;52.210;5.160;2023-10-13T12:37:43;100159.22;;;22.09;67.29
66524;BME280;53350;52.210;5.160;2023-10-13T12:40:16;100150.53;;;22.08;67.16
66524;BME280;53350;52.210;5.160;2023-10-13T12:43:00;100153.25;;;22.06;67.48
66524;BME280;53350;52.210;5.160;2023-10-13T12:45:45;100160.31;;;22.06;67.22
66524;BME280;53350;52.210;5.160;2023-10-13T12:48:29;100157.91;;;22.03;67.43
66524;BME280;53350;52.210;5.160;2023-10-13T12:51:13;100169.56;;;21.99;67.83
66524;BME280;53350;52.210;5.160;2023-10-13T12:53:47;100172.88;;;22.01;67.33
66524;BME280;53350;52.210;5.160;2023-10-13T12:56:14;100175.28;;;22.04;67.11
66524;BME280;53350;52.210;5.160;2023-10-13T12:58:40;100171.22;;;22.00;67.57
66524;BME280;53350;52.210;5.160;2023-10-13T13:01:07;100165.84;;;22.01;67.68
66524;BME280;53350;52.210;5.160;2023-10-13T13:03:33;100180.38;;;21.94;68.32
66524;BME280;53350;52.210;5.160;2023-10-13T13:05:59;100173.78;;;21.88;69.58
66524;BME280;53350;52.210;5.160;2023-10-13T13:08:32;100181.00;;;21.85;70.36
66524;BME280;53350;52.210;5.160;2023-10-13T13:11:01;100177.88;;;21.80;70.38
66524;BME280;53350;52.210;5.160;2023-10-13T13:13:28;100166.75;;;21.76;70.62
66524;BME280;53350;52.210;5.160;2023-10-13T13:15:55;100159.94;;;21.74;71.34
66524;BME280;53350;52.210;5.160;2023-10-13T13:18:21;100144.03;;;21.64;71.56
66524;BME280;53350;52.210;5.160;2023-10-13T13:20:47;100167.31;;;21.56;72.62